Time;durP1;ratioP1;P1;durP2;ratioP2;P2;SDS_P1;SDS_P2;PMS_P1;PMS_P2;Temp;Humidity;BMP_temperature;BMP_pressure;BME280_temperature;BME280_humidity;BME280_pressure;Samples;Min_cycle;Max_cycle;Signal;HPM_P1;HPM_P2
2024/02/27 00:00:26;;;;;;;30.63;16.13;;;4.00;99.90;;;;;;4964497;28;20198;-50
2024/02/27 00:02:53;;;;;;;30.60;16.93;;;4.00;99.90;;;;;;4945711;28;20206;-54
2024/02/27 00:05:19;;;;;;;28.90;15.73;;;4.10;99.90;;;;;;4938949;28;20218;-49
2024/02/27 00:07:48;;;;;;;33.43;16.73;;;4.10;99.90;;;;;;4965500;28;20222;-51
2024/02/27 00:10:15;;;;;;;29.10;15.53;;;4.10;99.90;;;;;;4954402;28;20330;-51
2024/02/27 00:12:42;;;;;;;34.63;16.13;;;4.10;99.90;;;;;;4965966;28;20221;-48
2024/02/27 00:15:10;;;;;;;29.43;14.87;;;4.10;99.90;;;;;;4961671;28;20198;-53
2024/02/27 00:17:37;;;;;;;31.13;16.10;;;4.10;99.90;;;;;;4949621;28;20272;-52
2024/02/27 00:20:04;;;;;;;34.07;17.10;;;4.10;99.90;;;;;;4935366;28;20210;-53
2024/02/27 00:22:34;;;;;;;33.67;16.77;;;4.10;99.90;;;;;;4965495;28;20426;-47
2024/02/27 00:25:02;;;;;;;36.57;17.07;;;4.10;99.90;;;;;;4953650;28;20260;-55
2024/02/27 00:27:29;;;;;;;32.20;16.80;;;4.10;99.90;;;;;;4958648;28;20194;-53
2024/02/27 00:29:56;;;;;;;33.50;17.03;;;4.20;99.90;;;;;;4962827;28;20280;-47
2024/02/27 00:32:23;;;;;;;37.03;17.10;;;4.20;99.90;;;;;;4948324;28;20280;-52
2024/02/27 00:34:50;;;;;;;38.53;17.77;;;4.20;99.90;;;;;;4961328;28;20202;-48
2024/02/27 00:37:17;;;;;;;34.90;16.13;;;4.20;99.90;;;;;;4936519;28;20292;-50
2024/02/27 00:39:44;;;;;;;36.93;17.20;;;4.10;99.90;;;;;;4961847;28;20198;-53
2024/02/27 00:42:12;;;;;;;33.17;17.33;;;4.20;99.90;;;;;;4958561;28;20206;-50
2024/02/27 00:44:40;;;;;;;35.70;17.50;;;4.20;99.90;;;;;;4962511;28;20244;-50
2024/02/27 00:47:07;;;;;;;34.57;17.60;;;4.20;99.90;;;;;;4941622;28;20198;-49
2024/02/27 00:49:34;;;;;;;32.07;16.37;;;4.20;99.90;;;;;;4963643;28;20218;-51
2024/02/27 00:52:01;;;;;;;32.80;16.73;;;4.20;99.90;;;;;;4935692;28;21176;-47
2024/02/27 00:54:27;;;;;;;30.93;16.37;;;4.20;99.90;;;;;;4964802;28;20198;-51
2024/02/27 00:56:54;;;;;;;35.37;16.33;;;4.20;99.90;;;;;;4953324;28;20193;-45
2024/02/27 00:59:22;;;;;;;36.13;16.60;;;4.20;99.90;;;;;;4964371;28;20277;-45
2024/02/27 01:01:49;;;;;;;31.63;17.43;;;4.20;99.90;;;;;;4960524;28;20884;-47
2024/02/27 01:04:16;;;;;;;34.23;18.00;;;4.30;99.90;;;;;;4945809;28;20676;-48
2024/02/27 01:06:44;;;;;;;34.37;16.73;;;4.30;99.90;;;;;;4935269;28;20198;-49
2024/02/27 01:09:12;;;;;;;28.37;15.00;;;4.20;99.90;;;;;;4964101;28;20313;-46
2024/02/27 01:11:39;;;;;;;29.80;15.20;;;4.20;99.90;;;;;;4954641;28;20206;-52
2024/02/27 01:14:05;;;;;;;35.13;15.23;;;4.20;99.90;;;;;;4961949;28;20281;-47
2024/02/27 01:16:34;;;;;;;33.37;15.63;;;4.20;99.90;;;;;;4961004;28;20456;-50
2024/02/27 01:19:00;;;;;;;29.90;15.30;;;4.20;99.90;;;;;;4945017;28;20230;-50
2024/02/27 01:21:27;;;;;;;27.73;15.07;;;4.20;99.90;;;;;;4964152;28;20206;-50
2024/02/27 01:23:54;;;;;;;34.07;15.87;;;4.20;99.90;;;;;;4933474;28;20200;-48
2024/02/27 01:26:21;;;;;;;28.00;15.90;;;4.20;99.90;;;;;;4964244;28;20198;-48
2024/02/27 01:28:47;;;;;;;33.80;16.13;;;4.30;99.90;;;;;;4951978;28;20237;-49
2024/02/27 01:31:14;;;;;;;31.90;16.67;;;4.30;99.90;;;;;;4964161;28;20802;-54
2024/02/27 01:33:43;;;;;;;35.03;16.70;;;4.30;99.90;;;;;;4947274;28;20268;-53
2024/02/27 01:36:09;;;;;;;32.80;17.40;;;4.30;99.90;;;;;;4963384;28;20696;-50
2024/02/27 01:38:36;;;;;;;31.70;16.63;;;4.30;99.90;;;;;;4933602;28;20229;-52
2024/02/27 01:41:03;;;;;;;29.17;16.20;;;4.30;99.90;;;;;;4962785;28;20204;-47
2024/02/27 01:43:30;;;;;;;33.57;16.83;;;4.20;99.90;;;;;;4959834;28;20202;-51
2024/02/27 01:46:06;;;;;;;36.37;17.80;;;4.30;99.90;;;;;;4955650;28;20980;-47
2024/02/27 01:48:34;;;;;;;34.83;17.50;;;4.30;99.90;;;;;;4962146;28;20213;-49
2024/02/27 01:51:02;;;;;;;27.83;15.67;;;4.30;99.90;;;;;;4945262;28;20205;-48
2024/02/27 01:53:30;;;;;;;33.90;15.97;;;4.30;99.90;;;;;;4955294;28;20202;-49
2024/02/27 01:55:57;;;;;;;29.10;16.13;;;4.30;99.90;;;;;;4944332;28;20197;-45
2024/02/27 01:58:24;;;;;;;36.00;17.30;;;4.30;99.90;;;;;;4963459;28;20222;-48
2024/02/27 02:00:51;;;;;;;29.57;16.23;;;4.30;99.90;;;;;;4952084;28;20201;-47
2024/02/27 02:03:23;;;;;;;35.13;16.50;;;4.30;99.90;;;;;;4963633;28;20617;-49
2024/02/27 02:05:50;;;;;;;33.50;16.97;;;4.30;99.90;;;;;;4942220;28;20206;-50
2024/02/27 02:08:18;;;;;;;34.13;17.30;;;4.30;99.90;;;;;;4962124;28;20703;-48
2024/02/27 02:10:45;;;;;;;32.67;16.90;;;4.40;99.90;;;;;;4932424;28;20280;-46
2024/02/27 02:13:13;;;;;;;32.43;16.40;;;4.30;99.90;;;;;;4963622;28;20555;-51
2024/02/27 02:15:39;;;;;;;29.30;16.00;;;4.30;99.90;;;;;;4952586;28;20206;-51
2024/02/27 02:18:06;;;;;;;33.57;17.53;;;4.30;99.90;;;;;;4962990;28;20226;-48
2024/02/27 02:20:34;;;;;;;33.67;17.40;;;4.30;99.90;;;;;;4955786;28;20637;-52
2024/02/27 02:23:01;;;;;;;31.97;17.53;;;4.30;99.90;;;;;;4954789;28;20186;-49
2024/02/27 02:25:32;;;;;;;33.43;16.73;;;4.30;99.90;;;;;;4958066;28;20206;-49
2024/02/27 02:27:59;;;;;;;29.40;15.97;;;4.30;99.90;;;;;;4947512;28;20280;-49
2024/02/27 02:30:26;;;;;;;34.37;18.17;;;4.30;99.90;;;;;;4954775;28;20668;-48
2024/02/27 02:32:53;;;;;;;31.37;17.33;;;4.40;99.90;;;;;;4960038;28;20215;-51
2024/02/27 02:35:20;;;;;;;31.40;17.67;;;4.40;99.90;;;;;;4963237;28;20244;-51
2024/02/27 02:37:49;;;;;;;34.53;17.37;;;4.40;99.90;;;;;;4941407;28;20283;-51
2024/02/27 02:40:17;;;;;;;32.40;16.33;;;4.40;99.90;;;;;;4962241;28;20220;-48
2024/02/27 02:42:45;;;;;;;30.87;16.80;;;4.40;99.90;;;;;;4932510;28;20294;-50
2024/02/27 02:45:12;;;;;;;25.83;15.67;;;4.40;99.90;;;;;;4954974;28;20691;-49
2024/02/27 02:47:39;;;;;;;26.17;15.57;;;4.40;99.90;;;;;;4960833;28;20217;-51
2024/02/27 02:50:08;;;;;;;30.90;17.23;;;4.40;99.90;;;;;;4962433;28;20206;-45
2024/02/27 02:52:36;;;;;;;24.07;14.47;;;4.40;99.90;;;;;;4951837;28;20225;-52
2024/02/27 02:55:05;;;;;;;21.63;13.80;;;4.40;99.90;;;;;;4955796;28;20249;-45
2024/02/27 02:57:32;;;;;;;20.77;13.43;;;4.40;99.90;;;;;;4933255;28;20565;-46
2024/02/27 02:59:59;;;;;;;18.33;11.87;;;4.30;99.90;;;;;;4961191;28;20190;-46
2024/02/27 03:02:26;;;;;;;24.73;14.07;;;4.30;99.90;;;;;;4940951;28;20206;-52
2024/02/27 03:04:53;;;;;;;22.07;12.23;;;4.20;99.90;;;;;;4962823;28;20872;-47
2024/02/27 03:07:20;;;;;;;21.37;13.50;;;4.20;99.90;;;;;;4960706;28;20222;-52
2024/02/27 03:09:46;;;;;;;24.47;13.40;;;4.20;99.90;;;;;;4944544;28;20210;-47
2024/02/27 03:12:15;;;;;;;18.77;11.60;;;4.20;99.90;;;;;;4950486;28;20570;-50
2024/02/27 03:14:45;;;;;;;21.23;12.97;;;4.20;99.90;;;;;;4946641;28;20237;-47
2024/02/27 03:17:14;;;;;;;24.27;12.90;;;4.20;99.90;;;;;;4953332;28;20206;-51
2024/02/27 03:19:41;;;;;;;20.30;12.90;;;4.20;99.90;;;;;;4960529;28;20194;-45
2024/02/27 03:22:09;;;;;;;22.90;13.63;;;4.20;99.90;;;;;;4962691;28;20669;-49
2024/02/27 03:24:36;;;;;;;24.97;13.87;;;4.20;99.90;;;;;;4942846;28;21375;-48
2024/02/27 03:27:03;;;;;;;26.13;13.50;;;4.20;99.90;;;;;;4962928;28;20198;-50
2024/02/27 03:29:31;;;;;;;25.23;14.77;;;4.20;99.90;;;;;;4932096;28;20221;-45
2024/02/27 03:31:58;;;;;;;24.17;13.87;;;4.20;99.90;;;;;;4954629;28;20245;-47
2024/02/27 03:34:26;;;;;;;24.23;14.23;;;4.10;99.90;;;;;;4961009;28;20217;-50
2024/02/27 03:36:53;;;;;;;26.17;14.23;;;4.10;99.90;;;;;;4966833;28;20280;-46
2024/02/27 03:39:20;;;;;;;29.80;14.27;;;4.10;99.90;;;;;;4952100;28;20246;-51
2024/02/27 03:41:47;;;;;;;23.93;12.80;;;4.10;99.90;;;;;;4962027;28;20194;-49
2024/02/27 03:44:13;;;;;;;24.53;13.80;;;4.10;99.90;;;;;;4937044;28;20276;-50
2024/02/27 03:46:42;;;;;;;24.93;11.73;;;4.10;99.90;;;;;;4952776;28;20224;-51
2024/02/27 03:49:08;;;;;;;22.00;11.77;;;4.00;99.90;;;;;;4965157;28;20708;-51
2024/02/27 03:51:35;;;;;;;22.37;11.60;;;3.90;99.90;;;;;;4962869;28;20198;-47
2024/02/27 03:54:02;;;;;;;23.07;11.93;;;3.90;99.90;;;;;;4966467;28;20261;-52
2024/02/27 03:56:29;;;;;;;19.03;10.77;;;3.80;99.90;;;;;;4945203;28;20272;-45
2024/02/27 03:58:56;;;;;;;19.70;10.23;;;3.80;99.90;;;;;;4966405;28;20222;-45
2024/02/27 04:01:23;;;;;;;21.70;10.43;;;3.70;99.90;;;;;;4928583;28;20249;-52
2024/02/27 04:03:51;;;;;;;19.33;10.60;;;3.60;99.90;;;;;;4965336;28;20234;-50
2024/02/27 04:06:18;;;;;;;18.13;10.87;;;3.60;99.90;;;;;;4962522;28;20202;-52
2024/02/27 04:08:45;;;;;;;21.23;9.97;;;3.60;99.90;;;;;;4964668;28;20221;-50
2024/02/27 04:11:11;;;;;;;19.57;9.97;;;3.60;99.90;;;;;;4947920;28;20218;-51
2024/02/27 04:13:38;;;;;;;17.80;10.13;;;3.60;99.90;;;;;;4962968;28;20213;-52
2024/02/27 04:16:05;;;;;;;22.87;11.17;;;3.60;99.90;;;;;;4938606;28;20265;-48
2024/02/27 04:18:32;;;;;;;19.73;10.57;;;3.60;99.90;;;;;;4954024;28;20280;-44
2024/02/27 04:21:00;;;;;;;21.90;10.67;;;3.60;99.90;;;;;;4965631;28;20692;-46
2024/02/27 04:23:27;;;;;;;20.37;10.67;;;3.60;99.90;;;;;;4961752;28;20227;-47
2024/02/27 04:25:55;;;;;;;23.63;11.53;;;3.70;99.90;;;;;;4963000;28;20244;-49
2024/02/27 04:28:22;;;;;;;24.13;11.03;;;3.70;99.90;;;;;;4945101;28;20217;-49
2024/02/27 04:30:49;;;;;;;27.23;11.13;;;3.70;99.90;;;;;;4965350;28;20210;-48
2024/02/27 04:33:16;;;;;;;23.37;12.20;;;3.70;99.90;;;;;;4934221;28;20230;-52
2024/02/27 04:35:43;;;;;;;23.17;11.53;;;3.70;99.90;;;;;;4958163;28;20198;-47
2024/02/27 04:38:11;;;;;;;21.93;12.00;;;3.70;99.90;;;;;;4964076;28;20222;-52
2024/02/27 04:40:38;;;;;;;23.07;11.70;;;3.70;99.90;;;;;;4962476;28;20198;-48
2024/02/27 04:43:05;;;;;;;23.90;11.93;;;3.70;99.90;;;;;;4948037;28;20202;-47
2024/02/27 04:45:32;;;;;;;24.83;11.63;;;3.80;99.90;;;;;;4961034;28;20274;-47
2024/02/27 04:48:00;;;;;;;20.70;11.37;;;3.70;99.90;;;;;;4935529;28;20222;-47
2024/02/27 04:50:26;;;;;;;22.33;11.60;;;3.70;99.90;;;;;;4952636;28;20213;-48
2024/02/27 04:52:53;;;;;;;22.47;11.77;;;3.80;99.90;;;;;;4965128;28;20225;-48
2024/02/27 04:55:21;;;;;;;24.10;11.93;;;3.70;99.90;;;;;;4962627;28;20202;-50
2024/02/27 04:57:48;;;;;;;22.30;13.00;;;3.80;99.90;;;;;;4964519;28;20229;-47
2024/02/27 05:00:16;;;;;;;24.33;13.30;;;3.80;99.90;;;;;;4946345;28;20214;-52
2024/02/27 05:02:43;;;;;;;25.00;13.20;;;3.80;99.90;;;;;;4934539;28;20214;-51
2024/02/27 05:05:10;;;;;;;25.80;12.60;;;3.80;99.90;;;;;;4955283;28;20237;-48
2024/02/27 05:07:36;;;;;;;24.80;13.10;;;3.70;99.90;;;;;;4951286;28;20280;-50
2024/02/27 05:10:04;;;;;;;24.73;14.10;;;3.70;99.90;;;;;;4962139;28;20205;-50
2024/02/27 05:12:32;;;;;;;24.43;13.43;;;3.70;99.90;;;;;;4957046;28;20225;-50
2024/02/27 05:14:59;;;;;;;25.13;13.83;;;3.70;99.90;;;;;;4945646;28;20919;-48
2024/02/27 05:17:26;;;;;;;23.73;14.47;;;3.60;99.90;;;;;;4964040;28;20202;-48
2024/02/27 05:19:53;;;;;;;24.77;13.70;;;3.60;99.90;;;;;;4925352;28;20281;-53
2024/02/27 05:22:20;;;;;;;22.67;13.27;;;3.60;99.90;;;;;;4961363;28;20264;-48
2024/02/27 05:24:47;;;;;;;23.23;13.53;;;3.50;99.90;;;;;;4961472;28;20277;-52
2024/02/27 05:27:14;;;;;;;23.80;13.87;;;3.50;99.90;;;;;;4956913;28;20700;-51
2024/02/27 05:29:43;;;;;;;23.33;13.77;;;3.50;99.90;;;;;;4956234;28;20202;-52
2024/02/27 05:32:10;;;;;;;23.27;13.30;;;3.50;99.90;;;;;;4955972;28;20218;-47
2024/02/27 05:34:37;;;;;;;22.70;14.00;;;3.50;99.90;;;;;;4935067;28;20206;-50
2024/02/27 05:37:03;;;;;;;24.43;13.90;;;3.50;99.90;;;;;;4956462;28;20289;-46
2024/02/27 05:39:31;;;;;;;21.33;13.77;;;3.50;99.90;;;;;;4963495;28;20225;-46
2024/02/27 05:41:59;;;;;;;25.07;14.40;;;3.50;99.90;;;;;;4953331;28;20285;-47
2024/02/27 05:44:26;;;;;;;21.67;13.40;;;3.50;99.90;;;;;;4962639;28;20656;-47
2024/02/27 05:46:54;;;;;;;19.30;13.13;;;3.50;99.90;;;;;;4943670;28;20194;-49
2024/02/27 05:49:21;;;;;;;22.10;12.70;;;3.50;99.90;;;;;;4933871;28;20269;-50
2024/02/27 05:51:48;;;;;;;22.73;13.40;;;3.40;99.90;;;;;;4953101;28;20217;-48
2024/02/27 05:54:15;;;;;;;24.77;14.33;;;3.40;99.90;;;;;;4963944;28;20226;-49
2024/02/27 05:56:42;;;;;;;23.97;14.53;;;3.40;99.90;;;;;;4959720;28;20567;-50
2024/02/27 05:59:08;;;;;;;21.13;13.37;;;3.50;99.90;;;;;;4958465;28;20217;-48
2024/02/27 06:01:36;;;;;;;20.43;14.17;;;3.50;99.90;;;;;;4942064;28;20866;-48
2024/02/27 06:04:04;;;;;;;23.23;13.77;;;3.40;99.90;;;;;;4967939;28;20213;-62
2024/02/27 06:06:31;;;;;;;18.97;12.03;;;3.40;99.90;;;;;;4923721;28;20214;-66
2024/02/27 06:08:58;;;;;;;23.27;12.63;;;3.40;99.90;;;;;;4955547;28;20245;-54
2024/02/27 06:11:24;;;;;;;21.63;13.67;;;3.40;99.90;;;;;;4956325;28;20198;-47
2024/02/27 06:13:51;;;;;;;20.70;13.47;;;3.40;99.90;;;;;;4950763;28;20217;-51
2024/02/27 06:16:18;;;;;;;19.53;12.23;;;3.40;99.90;;;;;;4940112;28;20720;-52
2024/02/27 06:18:47;;;;;;;20.63;13.23;;;3.40;99.90;;;;;;4956644;28;20225;-50
2024/02/27 06:24:00;;;;;;;20.60;13.20;;;3.30;99.90;;;;;;4951660;28;20198;-52
2024/02/27 06:26:27;;;;;;;22.27;12.60;;;3.30;99.90;;;;;;4964724;28;20206;-49
2024/02/27 06:28:54;;;;;;;21.30;13.93;;;3.30;99.90;;;;;;4955042;28;20240;-50
2024/02/27 06:31:21;;;;;;;23.23;14.93;;;3.40;99.90;;;;;;4936891;28;20313;-47
2024/02/27 06:33:48;;;;;;;18.83;13.67;;;3.40;99.90;;;;;;4946601;28;20638;-48
2024/02/27 06:36:16;;;;;;;22.93;14.50;;;3.40;99.90;;;;;;4936702;28;20206;-50
2024/02/27 06:38:43;;;;;;;21.53;14.10;;;3.40;99.90;;;;;;4948704;28;20229;-49
2024/02/27 06:41:10;;;;;;;21.93;13.40;;;3.40;99.90;;;;;;4962626;28;20205;-48
2024/02/27 06:43:37;;;;;;;20.63;14.20;;;3.40;99.90;;;;;;4958469;28;20562;-52
2024/02/27 06:46:05;;;;;;;18.70;13.30;;;3.40;99.90;;;;;;4949263;28;20214;-47
2024/02/27 06:48:32;;;;;;;17.43;12.33;;;3.40;99.90;;;;;;4946020;28;20580;-50
2024/02/27 06:51:00;;;;;;;17.37;13.13;;;3.50;99.90;;;;;;4933942;28;20234;-50
2024/02/27 06:53:28;;;;;;;18.40;12.57;;;3.50;99.90;;;;;;4941041;28;20320;-54
2024/02/27 06:55:55;;;;;;;18.37;12.73;;;3.50;99.90;;;;;;4954587;28;20781;-52
2024/02/27 06:58:22;;;;;;;14.93;10.57;;;3.50;99.90;;;;;;4951587;28;20226;-50
2024/02/27 07:00:49;;;;;;;15.07;11.17;;;3.50;99.90;;;;;;4955039;28;20688;-48
2024/02/27 07:03:16;;;;;;;15.47;11.73;;;3.60;99.90;;;;;;4934593;28;20202;-52
2024/02/27 07:05:43;;;;;;;15.20;11.60;;;3.60;99.90;;;;;;4960554;28;21002;-47
2024/02/27 07:08:10;;;;;;;18.13;11.73;;;3.60;99.90;;;;;;4937816;28;20554;-48
2024/02/27 07:10:39;;;;;;;15.00;11.20;;;3.60;99.90;;;;;;4955115;28;20859;-47
2024/02/27 07:13:06;;;;;;;14.97;10.87;;;3.60;99.90;;;;;;4953251;28;20218;-50
2024/02/27 07:15:33;;;;;;;16.13;11.70;;;3.60;99.90;;;;;;4952946;28;20222;-48
2024/02/27 07:18:00;;;;;;;12.63;10.03;;;3.70;99.90;;;;;;4955297;28;20233;-50
2024/02/27 07:20:27;;;;;;;13.73;9.90;;;3.60;99.90;;;;;;4948673;28;20198;-50
2024/02/27 07:22:54;;;;;;;12.27;9.67;;;3.70;99.90;;;;;;4939948;28;20202;-50
2024/02/27 07:25:20;;;;;;;13.57;9.43;;;3.70;99.90;;;;;;4954135;28;20289;-48
2024/02/27 07:27:49;;;;;;;12.20;9.63;;;3.70;99.90;;;;;;4966873;28;20230;-47
2024/02/27 07:30:16;;;;;;;12.47;9.43;;;3.80;99.90;;;;;;4956004;28;20210;-51
2024/02/27 07:32:44;;;;;;;13.17;10.13;;;3.80;99.90;;;;;;4950702;28;20198;-48
2024/02/27 07:35:11;;;;;;;12.07;9.80;;;3.80;99.90;;;;;;4948459;28;20229;-53
2024/02/27 07:37:38;;;;;;;12.97;10.20;;;3.80;99.90;;;;;;4938566;28;20298;-48
2024/02/27 07:40:05;;;;;;;13.63;10.13;;;3.90;99.90;;;;;;4963705;28;20276;-52
2024/02/27 07:42:33;;;;;;;15.67;9.63;;;3.90;99.90;;;;;;4959172;28;20245;-51
2024/02/27 07:45:02;;;;;;;13.90;9.17;;;3.90;99.90;;;;;;4966325;28;20742;-53
2024/02/27 07:47:28;;;;;;;13.10;9.47;;;3.90;99.90;;;;;;4939782;28;20269;-51
2024/02/27 07:49:55;;;;;;;11.87;9.57;;;3.90;99.90;;;;;;4936865;28;20222;-51
2024/02/27 07:52:22;;;;;;;12.23;9.33;;;3.90;99.90;;;;;;4961884;28;20194;-49
2024/02/27 07:54:49;;;;;;;13.80;9.47;;;3.90;99.90;;;;;;4939304;28;20270;-48
2024/02/27 07:57:16;;;;;;;12.03;10.13;;;3.90;99.90;;;;;;4954513;28;20595;-52
2024/02/27 07:59:43;;;;;;;14.43;9.50;;;3.90;99.90;;;;;;4966363;28;20202;-49
2024/02/27 08:02:11;;;;;;;13.13;9.53;;;4.00;99.90;;;;;;4955473;28;20643;-50
2024/02/27 08:04:38;;;;;;;12.87;9.97;;;4.00;99.90;;;;;;4927261;28;20246;-49
2024/02/27 08:07:05;;;;;;;10.83;9.73;;;4.00;99.90;;;;;;4966858;28;20197;-51
2024/02/27 08:09:33;;;;;;;13.70;9.97;;;3.90;99.90;;;;;;4935951;28;20708;-52
2024/02/27 08:11:59;;;;;;;14.50;10.43;;;3.80;99.90;;;;;;4949563;28;20416;-51
2024/02/27 08:14:29;;;;;;;11.87;9.90;;;3.80;99.90;;;;;;4964959;28;20622;-52
2024/02/27 08:16:57;;;;;;;12.53;9.83;;;3.80;99.90;;;;;;4955392;28;20984;-48
2024/02/27 08:19:26;;;;;;;14.40;10.53;;;3.80;99.90;;;;;;4956987;28;20225;-49
2024/02/27 08:21:53;;;;;;;13.67;10.03;;;3.70;99.90;;;;;;4946098;28;20190;-48
2024/02/27 08:24:20;;;;;;;13.17;9.87;;;3.70;99.90;;;;;;4966778;28;20649;-51
2024/02/27 08:26:47;;;;;;;14.33;9.80;;;3.80;99.90;;;;;;4936171;28;20206;-51
2024/02/27 08:29:13;;;;;;;15.27;10.37;;;3.80;99.90;;;;;;4956798;28;20225;-50
2024/02/27 08:31:41;;;;;;;16.83;10.77;;;3.90;99.90;;;;;;4952127;28;20218;-49
2024/02/27 08:34:07;;;;;;;13.77;11.17;;;3.90;99.90;;;;;;4965294;28;20329;-48
2024/02/27 08:36:36;;;;;;;12.93;10.70;;;3.90;99.90;;;;;;4938037;28;20230;-52
2024/02/27 08:39:04;;;;;;;13.37;10.67;;;3.90;99.90;;;;;;4965752;28;20579;-50
2024/02/27 08:41:32;;;;;;;17.83;10.67;;;3.80;99.90;;;;;;4935150;28;20691;-51
2024/02/27 08:43:59;;;;;;;13.73;10.17;;;3.80;99.90;;;;;;4956070;28;20206;-47
2024/02/27 08:46:26;;;;;;;13.63;11.07;;;3.80;99.90;;;;;;4961943;28;20214;-50
2024/02/27 08:48:53;;;;;;;17.03;10.40;;;3.80;99.90;;;;;;4957397;28;20221;-48
2024/02/27 08:51:20;;;;;;;12.87;9.83;;;3.90;99.90;;;;;;4958345;28;20276;-53
2024/02/27 08:53:48;;;;;;;14.00;10.40;;;3.80;99.90;;;;;;4945376;28;20210;-50
2024/02/27 08:56:15;;;;;;;17.13;11.27;;;3.80;99.90;;;;;;4938651;28;20209;-51
2024/02/27 08:58:42;;;;;;;13.73;10.50;;;3.80;99.90;;;;;;4951828;28;20222;-49
2024/02/27 09:01:10;;;;;;;12.63;11.03;;;3.90;99.90;;;;;;4965552;28;20294;-51
2024/02/27 09:03:37;;;;;;;16.93;10.80;;;3.90;99.90;;;;;;4954085;28;20202;-51
2024/02/27 09:06:05;;;;;;;16.30;10.67;;;3.90;99.90;;;;;;4944460;28;20198;-47
2024/02/27 09:08:32;;;;;;;12.40;10.57;;;3.90;99.90;;;;;;4948960;28;20226;-52
2024/02/27 09:11:00;;;;;;;12.17;10.00;;;3.90;99.90;;;;;;4933307;28;20281;-50
2024/02/27 09:13:27;;;;;;;15.40;10.50;;;3.90;99.90;;;;;;4964954;28;20198;-52
2024/02/27 09:15:53;;;;;;;11.90;9.83;;;4.00;99.90;;;;;;4956287;28;20672;-49
2024/02/27 09:18:20;;;;;;;13.17;10.07;;;4.00;99.90;;;;;;4954266;28;20238;-49
2024/02/27 09:20:47;;;;;;;14.07;10.83;;;4.00;99.90;;;;;;4964743;28;20194;-50
2024/02/27 09:23:14;;;;;;;16.07;11.10;;;4.00;99.90;;;;;;4938112;28;20205;-52
2024/02/27 09:25:41;;;;;;;13.50;10.13;;;4.00;99.90;;;;;;4964576;28;20225;-47
2024/02/27 09:28:10;;;;;;;14.23;10.43;;;4.00;99.90;;;;;;4923824;28;20210;-48
2024/02/27 09:30:37;;;;;;;14.90;10.43;;;4.10;99.90;;;;;;4951485;28;20716;-52
2024/02/27 09:33:04;;;;;;;11.90;9.33;;;4.10;99.90;;;;;;4952638;28;20205;-47
2024/02/27 09:35:31;;;;;;;14.53;10.10;;;4.10;99.90;;;;;;4962562;28;20797;-53
2024/02/27 09:37:58;;;;;;;12.13;10.20;;;4.10;99.90;;;;;;4940153;28;20331;-48
2024/02/27 09:40:25;;;;;;;11.57;9.67;;;4.10;99.90;;;;;;4965357;28;20198;-51
2024/02/27 09:42:56;;;;;;;14.07;10.27;;;4.20;99.90;;;;;;4932788;28;20261;-52
2024/02/27 09:45:26;;;;;;;15.90;9.83;;;4.30;99.90;;;;;;4954614;28;20627;-50
2024/02/27 09:47:54;;;;;;;12.07;9.80;;;4.30;99.90;;;;;;4961697;28;20228;-51
2024/02/27 09:50:22;;;;;;;12.10;9.70;;;4.30;99.90;;;;;;4957961;28;20285;-48
2024/02/27 09:52:50;;;;;;;10.93;9.10;;;4.30;99.90;;;;;;4960253;28;20194;-48
2024/02/27 09:55:19;;;;;;;12.53;9.67;;;4.30;99.90;;;;;;4946493;28;20351;-47
2024/02/27 09:57:48;;;;;;;11.03;9.13;;;4.30;99.90;;;;;;4932273;28;20332;-51
2024/02/27 10:00:16;;;;;;;11.37;9.43;;;4.30;99.90;;;;;;4955834;28;20257;-51
2024/02/27 10:02:46;;;;;;;10.80;9.47;;;4.40;99.90;;;;;;4960101;28;20833;-51
2024/02/27 10:05:17;;;;;;;12.57;9.23;;;4.40;99.90;;;;;;4955401;28;20544;-48
2024/02/27 10:07:46;;;;;;;12.37;8.83;;;4.50;99.90;;;;;;4952762;28;20280;-49
2024/02/27 10:10:14;;;;;;;11.00;9.80;;;4.50;99.90;;;;;;4947424;28;20264;-48
2024/02/27 10:12:41;;;;;;;12.20;9.13;;;4.50;99.90;;;;;;4960014;28;20539;-54
2024/02/27 10:15:08;;;;;;;12.33;8.87;;;4.50;99.90;;;;;;4926482;28;20217;-51
2024/02/27 10:17:37;;;;;;;11.63;9.13;;;4.60;99.90;;;;;;4961101;28;20197;-55
2024/02/27 10:20:10;;;;;;;11.83;9.10;;;4.60;99.90;;;;;;4953958;28;20206;-51
2024/02/27 10:22:38;;;;;;;11.00;8.90;;;4.60;99.90;;;;;;4961233;28;20205;-54
2024/02/27 10:25:06;;;;;;;10.77;9.30;;;4.70;99.90;;;;;;4945239;28;20202;-49
2024/02/27 10:27:35;;;;;;;11.23;8.93;;;4.70;99.90;;;;;;4961663;28;20277;-50
2024/02/27 10:30:03;;;;;;;9.67;8.40;;;4.70;99.90;;;;;;4927153;28;20280;-50
2024/02/27 10:32:33;;;;;;;10.63;8.23;;;4.70;99.90;;;;;;4959543;28;20277;-53
2024/02/27 10:35:03;;;;;;;10.73;8.73;;;4.80;99.90;;;;;;4961933;28;20304;-50
2024/02/27 10:37:32;;;;;;;10.33;9.13;;;4.80;99.90;;;;;;4948414;28;20298;-54
2024/02/27 10:40:00;;;;;;;11.07;8.30;;;4.80;99.90;;;;;;4963750;28;20672;-49
2024/02/27 10:42:28;;;;;;;9.07;8.17;;;4.90;99.90;;;;;;4943503;28;20197;-53
2024/02/27 10:44:56;;;;;;;10.67;8.83;;;4.80;99.90;;;;;;4941436;28;20229;-51
2024/02/27 10:47:26;;;;;;;8.80;7.73;;;4.90;99.90;;;;;;4957022;28;20297;-51
2024/02/27 10:49:54;;;;;;;9.60;8.60;;;4.90;99.90;;;;;;4966708;28;20676;-49
2024/02/27 10:52:24;;;;;;;8.37;7.53;;;4.90;99.90;;;;;;4956860;28;20229;-52
2024/02/27 10:54:53;;;;;;;8.83;7.90;;;4.90;99.90;;;;;;4966847;28;20221;-49
2024/02/27 10:57:20;;;;;;;11.13;8.27;;;5.10;99.90;;;;;;4947754;28;20209;-52
2024/02/27 10:59:48;;;;;;;12.00;8.90;;;5.20;99.90;;;;;;4939375;28;20289;-50
2024/02/27 11:02:18;;;;;;;15.97;9.33;;;5.20;99.90;;;;;;4958633;28;20268;-53
2024/02/27 11:04:46;;;;;;;11.63;8.43;;;5.20;99.90;;;;;;4965034;28;20190;-47
2024/02/27 11:07:14;;;;;;;9.60;8.63;;;5.20;99.90;;;;;;4944362;28;20206;-49
2024/02/27 11:09:43;;;;;;;10.87;8.70;;;5.10;99.90;;;;;;4965287;28;20580;-53
2024/02/27 11:12:14;;;;;;;10.80;8.40;;;5.20;99.90;;;;;;4949171;28;20202;-51
2024/02/27 11:14:44;;;;;;;10.93;8.97;;;5.20;99.90;;;;;;4956438;28;20589;-52
2024/02/27 11:17:15;;;;;;;10.23;8.63;;;5.10;99.90;;;;;;4944198;28;20221;-48
2024/02/27 11:19:47;;;;;;;9.93;8.63;;;5.10;99.90;;;;;;4965917;28;20257;-50
2024/02/27 11:22:16;;;;;;;10.33;9.33;;;5.10;99.90;;;;;;4956614;28;20210;-48
2024/02/27 11:24:43;;;;;;;10.00;8.90;;;5.10;99.90;;;;;;4965822;28;20516;-52
2024/02/27 11:27:14;;;;;;;10.83;8.73;;;5.10;99.90;;;;;;4948175;28;20226;-48
2024/02/27 11:29:41;;;;;;;9.40;8.40;;;5.00;99.90;;;;;;4963190;28;20971;-53
2024/02/27 11:32:09;;;;;;;8.10;7.30;;;5.00;99.90;;;;;;4931332;28;20205;-49
2024/02/27 11:34:35;;;;;;;8.67;7.63;;;5.10;99.90;;;;;;4957665;28;20226;-52
2024/02/27 11:37:10;;;;;;;8.77;7.83;;;5.10;99.90;;;;;;4948048;28;20210;-49
2024/02/27 11:39:37;;;;;;;9.03;8.13;;;5.30;99.90;;;;;;4966812;28;20217;-51
2024/02/27 11:42:05;;;;;;;9.73;8.47;;;5.30;99.90;;;;;;4962669;28;20260;-49
2024/02/27 11:44:53;;;;;;;9.50;7.93;;;5.40;99.90;;;;;;4949854;28;20190;-49
2024/02/27 11:47:36;;;;;;;8.87;7.97;;;5.40;99.90;;;;;;4938600;28;20293;-53
2024/02/27 11:50:06;;;;;;;8.57;7.70;;;5.40;99.90;;;;;;4954092;28;20197;-49
2024/02/27 11:52:34;;;;;;;8.13;6.97;;;5.50;99.90;;;;;;4958829;28;20198;-50
2024/02/27 11:55:08;;;;;;;8.93;8.03;;;5.60;99.90;;;;;;4952941;28;20222;-52
2024/02/27 11:57:36;;;;;;;8.00;6.97;;;5.60;99.90;;;;;;4965899;28;20252;-49
2024/02/27 12:00:08;;;;;;;7.03;6.37;;;5.50;99.90;;;;;;4946218;28;20198;-51
2024/02/27 12:02:37;;;;;;;8.07;7.27;;;5.50;99.90;;;;;;4936144;28;20724;-50
2024/02/27 12:05:05;;;;;;;10.07;7.90;;;5.50;99.90;;;;;;4956317;28;20191;-50
2024/02/27 12:07:34;;;;;;;8.77;7.87;;;5.40;99.90;;;;;;4960396;28;20202;-48
2024/02/27 12:10:11;;;;;;;8.47;7.63;;;5.60;99.90;;;;;;4950506;28;20821;-49
2024/02/27 12:12:39;;;;;;;8.27;6.80;;;5.70;99.90;;;;;;4965465;28;20531;-52
2024/02/27 12:15:08;;;;;;;8.77;7.63;;;5.80;99.90;;;;;;4946224;28;20395;-50
2024/02/27 12:17:37;;;;;;;7.97;6.77;;;5.80;99.90;;;;;;4938194;28;20821;-48
2024/02/27 12:20:05;;;;;;;10.87;7.23;;;5.80;99.90;;;;;;4954147;28;20342;-48
2024/02/27 12:22:34;;;;;;;8.57;7.07;;;5.90;99.90;;;;;;4965235;28;20261;-50
2024/02/27 12:25:01;;;;;;;13.73;7.30;;;6.00;99.90;;;;;;4947389;28;20206;-48
2024/02/27 12:27:28;;;;;;;7.70;6.57;;;5.90;99.90;;;;;;4965585;28;20206;-48
2024/02/27 12:29:55;;;;;;;7.87;6.57;;;5.80;99.90;;;;;;4945247;28;20205;-48
2024/02/27 12:32:22;;;;;;;7.80;7.03;;;5.90;99.90;;;;;;4965758;28;20194;-48
2024/02/27 12:34:50;;;;;;;7.47;6.70;;;6.00;99.90;;;;;;4929040;28;20218;-53
2024/02/27 12:37:18;;;;;;;7.70;6.70;;;6.00;99.90;;;;;;4962915;28;20202;-49
2024/02/27 12:39:46;;;;;;;6.33;5.73;;;6.00;99.90;;;;;;4953455;28;20680;-49
2024/02/27 12:42:14;;;;;;;6.57;5.93;;;6.10;99.90;;;;;;4960701;28;20201;-49
2024/02/27 12:44:46;;;;;;;11.80;7.00;;;6.00;99.90;;;;;;4947317;28;20267;-48